createdAt,value
2023-03-13T00:00:25.032Z,98699.63
2023-03-13T00:04:31.926Z,98700.00
2023-03-13T00:08:37.546Z,98701.84
2023-03-13T00:12:39.670Z,98704.59
2023-03-13T00:16:41.972Z,98698.28
2023-03-13T00:20:44.182Z,98706.66
2023-03-13T00:24:48.050Z,98710.09
2023-03-13T00:28:51.051Z,98718.63
2023-03-13T00:32:53.148Z,98727.00
2023-03-13T00:36:56.121Z,98722.75
2023-03-13T00:41:08.018Z,98723.53
2023-03-13T00:45:12.728Z,98728.19
2023-03-13T00:49:15.063Z,98727.25
2023-03-13T00:53:17.517Z,98732.78
2023-03-13T00:57:19.681Z,98724.13
2023-03-13T01:01:23.161Z,98725.06
2023-03-13T01:05:25.458Z,98720.34
2023-03-13T01:09:27.576Z,98731.28
2023-03-13T01:13:31.299Z,98729.66
2023-03-13T01:17:33.362Z,98721.41
2023-03-13T01:21:35.668Z,98725.75
2023-03-13T01:25:38.448Z,98725.28
2023-03-13T01:29:40.728Z,98729.16
2023-03-13T01:33:42.954Z,98735.81
2023-03-13T01:37:45.114Z,98734.44
2023-03-13T01:41:47.764Z,98724.59
2023-03-13T01:45:59.345Z,98731.19
2023-03-13T01:50:05.553Z,98739.59
2023-03-13T01:54:30.573Z,98738.88
2023-03-13T01:58:33.052Z,98742.31
2023-03-13T02:02:43.608Z,98751.75
2023-03-13T02:06:57.251Z,98747.66
2023-03-13T02:11:24.006Z,98740.31
2023-03-13T02:15:28.401Z,98734.31
2023-03-13T02:19:49.336Z,98737.09
2023-03-13T02:24:01.943Z,98743.59
2023-03-13T02:28:06.889Z,98739.59
2023-03-13T02:32:11.669Z,98752.31
2023-03-13T02:36:16.693Z,98752.97
2023-03-13T02:40:26.606Z,98762.06
2023-03-13T02:44:29.737Z,98755.97
2023-03-13T02:48:38.140Z,98757.19
2023-03-13T02:52:45.739Z,98760.56
2023-03-13T02:56:54.704Z,98765.56
2023-03-13T03:00:56.917Z,98768.97
2023-03-13T03:04:59.136Z,98762.81
2023-03-13T03:09:01.617Z,98765.13
2023-03-13T03:13:05.957Z,98771.88
2023-03-13T03:17:08.278Z,98767.47
2023-03-13T03:21:10.414Z,98767.53
2023-03-13T03:25:14.718Z,98760.31
2023-03-13T03:29:16.938Z,98778.09
2023-03-13T03:33:23.908Z,98771.88
2023-03-13T03:37:26.431Z,98777.97
2023-03-13T03:41:28.976Z,98780.06
2023-03-13T03:45:31.670Z,98785.16
2023-03-13T03:49:33.742Z,98778.31
2023-03-13T03:53:36.195Z,98787.03
2023-03-13T03:57:38.583Z,98779.56
2023-03-13T04:01:44.950Z,98780.75
2023-03-13T04:05:48.378Z,98786.47
2023-03-13T04:09:50.872Z,98796.56
2023-03-13T04:14:15.777Z,98810.34
2023-03-13T04:18:18.580Z,98793.63
2023-03-13T04:22:21.252Z,98804.47
2023-03-13T04:26:28.091Z,98811.75
2023-03-13T04:30:32.642Z,98811.00
2023-03-13T04:34:52.138Z,98811.38
2023-03-13T04:39:25.459Z,98811.59
2023-03-13T04:43:30.000Z,98814.00
2023-03-13T04:47:42.020Z,98808.50
2023-03-13T04:52:11.064Z,98809.28
2023-03-13T04:56:42.286Z,98815.25
2023-03-13T05:01:04.048Z,98821.91
2023-03-13T05:05:28.377Z,98824.84
2023-03-13T05:10:03.131Z,98842.22
2023-03-13T05:14:10.778Z,98824.19
2023-03-13T05:18:15.918Z,98824.50
2023-03-13T05:22:24.409Z,98835.06
2023-03-13T05:27:04.938Z,98839.03
2023-03-13T05:31:13.227Z,98843.72
2023-03-13T05:35:42.908Z,98832.06
2023-03-13T05:40:05.895Z,98828.63
2023-03-13T05:44:17.688Z,98834.31
2023-03-13T05:48:22.645Z,98826.59
2023-03-13T05:52:53.907Z,98835.47
2023-03-13T05:57:11.420Z,98843.75
2023-03-13T06:01:41.250Z,98846.59
2023-03-13T06:05:59.343Z,98848.06
2023-03-13T06:10:10.776Z,98855.31
2023-03-13T06:19:02.352Z,98859.84
2023-03-13T06:23:04.379Z,98868.56
2023-03-13T06:27:07.700Z,98880.31
2023-03-13T06:31:10.947Z,98876.00
2023-03-13T06:35:13.068Z,98876.16
2023-03-13T06:39:15.058Z,98882.66
2023-03-13T06:43:18.108Z,98879.06
2023-03-13T06:47:23.329Z,98875.22
2023-03-13T06:51:26.417Z,98878.34
2023-03-13T06:55:28.429Z,98884.06
2023-03-13T06:59:30.775Z,98885.72
2023-03-13T07:03:32.978Z,98884.63
2023-03-13T07:07:35.399Z,98870.91
2023-03-13T07:11:37.777Z,98879.00
2023-03-13T07:15:39.750Z,98885.53
2023-03-13T07:19:41.824Z,98875.16
2023-03-13T07:23:43.948Z,98876.34
2023-03-13T07:27:46.158Z,98876.03
2023-03-13T07:31:49.364Z,98886.47
2023-03-13T07:35:52.462Z,98883.16
2023-03-13T07:39:54.750Z,98866.69
2023-03-13T07:43:56.761Z,98855.28
2023-03-13T07:47:58.822Z,98850.25
2023-03-13T07:52:00.800Z,98854.34
2023-03-13T07:56:10.064Z,98854.66
2023-03-13T08:00:16.608Z,98861.41
2023-03-13T08:04:19.301Z,98861.03
2023-03-13T08:08:21.415Z,98865.44
2023-03-13T08:12:23.503Z,98872.25
2023-03-13T08:16:28.171Z,98875.44
2023-03-13T08:20:30.335Z,98877.72
2023-03-13T08:24:32.386Z,98874.75
2023-03-13T08:28:35.583Z,98867.19
2023-03-13T08:32:37.650Z,98868.13
2023-03-13T08:36:40.424Z,98867.72
2023-03-13T08:40:42.520Z,98872.38
2023-03-13T08:44:44.983Z,98870.34
2023-03-13T08:48:55.325Z,98881.06
2023-03-13T08:52:57.385Z,98874.41
2023-03-13T08:57:00.166Z,98875.22
2023-03-13T09:01:04.625Z,98874.97
2023-03-13T09:05:07.461Z,98864.03
2023-03-13T09:09:09.910Z,98870.69
2023-03-13T09:13:11.909Z,98874.69
2023-03-13T09:17:13.972Z,98879.47
2023-03-13T09:21:19.685Z,98872.16
2023-03-13T09:25:21.778Z,98866.38
2023-03-13T09:29:24.035Z,98876.81
2023-03-13T09:33:26.284Z,98866.31
2023-03-13T09:37:28.402Z,98874.06
2023-03-13T09:41:39.454Z,98867.91
2023-03-13T09:45:47.084Z,98874.56
2023-03-13T09:50:12.095Z,98867.13
2023-03-13T09:54:33.976Z,98855.38
2023-03-13T09:58:36.258Z,98862.34
2023-03-13T10:02:39.801Z,98856.28
2023-03-13T10:06:44.961Z,98862.94
2023-03-13T10:10:57.846Z,98858.28
2023-03-13T10:15:32.848Z,98849.00
2023-03-13T10:19:37.865Z,98844.84
2023-03-13T10:23:50.890Z,98850.53
2023-03-13T10:27:55.037Z,98845.56
2023-03-13T10:32:06.167Z,98840.13
2023-03-13T10:36:11.816Z,98847.59
2023-03-13T10:40:23.172Z,98838.47
2023-03-13T10:44:32.169Z,98828.41
2023-03-13T10:48:37.842Z,98833.00
2023-03-13T10:52:49.084Z,98831.72
2023-03-13T10:57:10.281Z,98829.22
2023-03-13T11:01:32.151Z,98815.06
2023-03-13T11:05:40.225Z,98809.88
2023-03-13T11:09:42.487Z,98808.56
2023-03-13T11:13:45.618Z,98794.28
2023-03-13T11:18:07.690Z,98792.91
2023-03-13T11:22:15.822Z,98781.66
2023-03-13T11:26:20.824Z,98778.97
2023-03-13T11:30:32.801Z,98769.59
2023-03-13T11:34:42.825Z,98765.00
2023-03-13T11:39:00.503Z,98767.28
2023-03-13T11:43:24.482Z,98759.97
2023-03-13T11:47:43.838Z,98756.47
2023-03-13T11:52:18.497Z,98756.22
2023-03-13T11:56:46.722Z,98742.63
2023-03-13T12:01:02.285Z,98752.19
2023-03-13T12:05:10.366Z,98745.19
2023-03-13T12:09:12.923Z,98743.34
2023-03-13T12:13:27.550Z,98740.34
2023-03-13T12:17:35.018Z,98736.72
2023-03-13T12:21:41.406Z,98737.66
2023-03-13T12:26:06.374Z,98733.84
2023-03-13T12:30:12.063Z,98710.63
2023-03-13T12:34:26.240Z,98700.31
2023-03-13T12:38:31.318Z,98688.41
2023-03-13T12:43:24.333Z,98675.00
2023-03-13T12:47:50.638Z,98669.16
2023-03-13T12:52:08.105Z,98674.97
2023-03-13T12:56:54.825Z,98670.53
2023-03-13T13:01:02.445Z,98665.38
2023-03-13T13:05:05.131Z,98656.94
2023-03-13T13:09:14.808Z,98662.38
2023-03-13T13:13:29.190Z,98651.84
2023-03-13T13:17:34.258Z,98646.66
2023-03-13T13:21:38.126Z,98642.31
2023-03-13T13:25:40.341Z,98650.72
2023-03-13T13:29:42.353Z,98643.09
2023-03-13T13:33:44.503Z,98638.88
2023-03-13T13:37:49.502Z,98640.03
2023-03-13T13:41:51.904Z,98639.56
2023-03-13T13:46:02.646Z,98644.31
2023-03-13T13:50:21.400Z,98644.97
2023-03-13T13:54:47.573Z,98637.19
2023-03-13T13:58:50.066Z,98635.91
2023-03-13T14:02:54.320Z,98622.38
2023-03-13T14:07:01.942Z,98618.75
2023-03-13T14:11:16.746Z,98608.72
2023-03-13T14:15:34.544Z,98604.78
2023-03-13T14:19:40.112Z,98597.59
2023-03-13T14:23:44.636Z,98590.81
2023-03-13T14:27:49.254Z,98585.72
2023-03-13T14:31:57.826Z,98592.25
2023-03-13T14:36:00.101Z,98591.91
2023-03-13T14:40:09.865Z,98587.47
2023-03-13T14:44:30.838Z,98580.63
2023-03-13T14:48:34.236Z,98569.06
2023-03-13T14:52:37.589Z,98561.75
2023-03-13T14:56:43.693Z,98559.66
2023-03-13T15:00:48.463Z,98562.06
2023-03-13T15:05:06.595Z,98566.34
2023-03-13T15:09:18.930Z,98559.84
2023-03-13T15:13:34.731Z,98561.09
2023-03-13T15:17:37.702Z,98559.19
2023-03-13T15:21:41.285Z,98558.88
2023-03-13T15:25:43.415Z,98552.84
2023-03-13T15:29:46.666Z,98556.34
2023-03-13T15:33:50.713Z,98556.63
2023-03-13T15:37:53.001Z,98556.09
2023-03-13T15:41:55.090Z,98550.31
2023-03-13T15:45:57.471Z,98556.81
2023-03-13T15:49:59.765Z,98540.91
2023-03-13T15:54:01.806Z,98539.16
2023-03-13T15:58:03.856Z,98548.19
2023-03-13T16:02:14.646Z,98543.44
2023-03-13T16:06:20.677Z,98540.22
2023-03-13T16:10:26.165Z,98537.03
2023-03-13T16:14:28.216Z,98536.31
2023-03-13T16:18:30.450Z,98525.41
2023-03-13T16:22:32.679Z,98532.91
2023-03-13T16:26:34.802Z,98529.72
2023-03-13T16:30:36.948Z,98536.13
2023-03-13T16:34:41.629Z,98527.53
2023-03-13T16:38:44.229Z,98525.50
2023-03-13T16:42:46.691Z,98530.59
2023-03-13T16:47:04.486Z,98536.38
2023-03-13T16:51:16.151Z,98537.50
2023-03-13T16:55:19.742Z,98545.25
2023-03-13T16:59:23.324Z,98539.34
2023-03-13T17:03:25.431Z,98531.88
2023-03-13T17:07:29.346Z,98531.16
2023-03-13T17:11:31.423Z,98531.38
2023-03-13T17:15:33.475Z,98530.56
2023-03-13T17:19:35.712Z,98528.84
2023-03-13T17:23:37.932Z,98526.00
2023-03-13T17:27:41.461Z,98527.97
2023-03-13T17:31:43.544Z,98534.56
2023-03-13T17:35:45.880Z,98536.03
2023-03-13T17:39:49.405Z,98536.97
2023-03-13T17:43:52.187Z,98524.78
2023-03-13T17:47:54.660Z,98529.69
2023-03-13T17:51:56.703Z,98532.47
2023-03-13T17:55:59.010Z,98530.41
2023-03-13T18:00:01.107Z,98535.06
2023-03-13T18:04:03.680Z,98537.28
2023-03-13T18:08:05.814Z,98538.44
2023-03-13T18:12:11.587Z,98537.13
2023-03-13T18:16:21.167Z,98534.69
2023-03-13T18:20:30.821Z,98540.88
2023-03-13T18:24:33.999Z,98535.59
2023-03-13T18:28:36.079Z,98534.03
2023-03-13T18:32:38.199Z,98539.41
2023-03-13T18:36:40.412Z,98542.44
2023-03-13T18:41:20.104Z,98538.38
2023-03-13T18:45:57.584Z,98537.69
2023-03-13T18:49:59.754Z,98526.69
2023-03-13T18:54:01.882Z,98531.28
2023-03-13T18:58:04.087Z,98527.81
2023-03-13T19:02:07.669Z,98516.97
2023-03-13T19:06:36.929Z,98524.44
2023-03-13T19:10:39.088Z,98525.91
2023-03-13T19:14:41.465Z,98523.03
2023-03-13T19:18:44.934Z,98503.59
2023-03-13T19:22:47.376Z,98508.97
2023-03-13T19:26:53.658Z,98515.16
2023-03-13T19:30:55.876Z,98509.31
2023-03-13T19:34:57.946Z,98509.34
2023-03-13T19:39:00.530Z,98506.91
2023-03-13T19:43:02.608Z,98499.41
2023-03-13T19:47:05.542Z,98499.44
2023-03-13T19:51:09.270Z,98496.50
2023-03-13T19:55:11.853Z,98503.25
2023-03-13T19:59:21.293Z,98489.38
2023-03-13T20:03:24.159Z,98482.16
2023-03-13T20:07:26.343Z,98468.53
2023-03-13T20:11:29.731Z,98464.66
2023-03-13T20:15:31.792Z,98464.50
2023-03-13T20:19:33.868Z,98464.06
2023-03-13T20:23:36.735Z,98461.41
2023-03-13T20:27:39.449Z,98465.09
2023-03-13T20:31:41.696Z,98459.28
2023-03-13T20:35:43.768Z,98456.00
2023-03-13T20:39:46.171Z,98434.88
2023-03-13T20:43:48.493Z,98440.25
2023-03-13T20:47:51.138Z,98420.00
2023-03-13T20:51:53.446Z,98408.50
2023-03-13T20:55:55.573Z,98401.16
2023-03-13T20:59:57.930Z,98413.69
2023-03-13T21:04:00.265Z,98399.38
2023-03-13T21:08:02.325Z,98398.28
2023-03-13T21:12:05.060Z,98400.16
2023-03-13T21:16:07.860Z,98419.16
2023-03-13T21:20:13.972Z,98410.34
2023-03-13T21:24:16.617Z,98407.97
2023-03-13T21:28:18.804Z,98403.22
2023-03-13T21:32:21.576Z,98408.88
2023-03-13T21:36:23.698Z,98408.84
2023-03-13T21:40:26.116Z,98406.25
2023-03-13T21:44:28.246Z,98399.84
2023-03-13T21:48:30.398Z,98391.06
2023-03-13T21:52:34.416Z,98393.75
2023-03-13T21:56:38.974Z,98382.03
2023-03-13T22:00:41.132Z,98378.03
2023-03-13T22:04:43.421Z,98374.84
2023-03-13T22:08:45.597Z,98369.78
2023-03-13T22:12:47.762Z,98362.88
2023-03-13T22:16:50.089Z,98366.59
2023-03-13T22:20:52.182Z,98366.59
2023-03-13T22:24:54.454Z,98378.59
2023-03-13T22:28:56.631Z,98364.19
2023-03-13T22:32:58.915Z,98360.75
2023-03-13T22:37:01.135Z,98360.22
2023-03-13T22:41:05.131Z,98350.84
2023-03-13T22:45:07.972Z,98352.66
2023-03-13T22:49:10.171Z,98357.19
2023-03-13T22:53:12.495Z,98364.63
2023-03-13T22:57:14.681Z,98353.69
2023-03-13T23:01:18.836Z,98342.00
2023-03-13T23:05:21.425Z,98335.59
2023-03-13T23:09:23.612Z,98330.50
2023-03-13T23:13:25.717Z,98315.63
2023-03-13T23:17:31.376Z,98303.91
2023-03-13T23:21:33.563Z,98328.03
2023-03-13T23:25:38.488Z,98318.75
2023-03-13T23:29:40.940Z,98322.22
2023-03-13T23:33:43.813Z,98316.34
2023-03-13T23:37:53.299Z,98306.78
2023-03-13T23:41:55.425Z,98291.59
2023-03-13T23:45:57.504Z,98288.84
2023-03-13T23:49:59.950Z,98279.28
2023-03-13T23:54:02.175Z,98280.31
2023-03-13T23:58:04.300Z,98274.16
